Terminal Aerodrome Forecast
Issued by NWS Pendleton, OR

Home | Current Version | Previous Version | Text Only | Print | Product List | Glossary On
Versions: 1 2 3 4 5 6 7 8 9 10 11 12 13 14
000
FTUS46 KPDT 041149
TAFPDT
TAF
KPDT 041149Z 0412/0512 15007KT P6SM SKC
     FM041500 22007KT P6SM SKC
     FM042000 27010KT P6SM FEW080 SCT250
     FM050400 15007KT P6SM SCT250=

USA.gov is the U.S. government's official web portal to all federal, state and local government web resources and services.